createdAt,value
2023-05-11T00:00:37.415Z,0
2023-05-11T00:01:53.718Z,0
2023-05-11T00:03:10.000Z,0
2023-05-11T00:05:41.622Z,0
2023-05-11T00:06:56.940Z,0
2023-05-11T00:08:13.228Z,0
2023-05-11T00:09:29.508Z,0
2023-05-11T00:10:45.820Z,0
2023-05-11T00:12:02.110Z,0
2023-05-11T00:13:18.397Z,0
2023-05-11T00:14:34.695Z,0
2023-05-11T00:15:50.986Z,0
2023-05-11T00:17:06.305Z,0
2023-05-11T00:18:22.605Z,0
2023-05-11T00:19:37.901Z,0
2023-05-11T00:20:54.205Z,0
2023-05-11T00:22:10.498Z,0
2023-05-11T00:23:26.797Z,0
2023-05-11T00:24:43.088Z,0
2023-05-11T00:25:59.384Z,0
2023-05-11T00:27:15.678Z,0
2023-05-11T00:28:31.956Z,0
2023-05-11T00:29:48.251Z,0
2023-05-11T00:31:04.558Z,0
2023-05-11T00:32:20.842Z,0
2023-05-11T00:33:37.150Z,0
2023-05-11T00:34:53.431Z,0
2023-05-11T00:36:08.740Z,0
2023-05-11T00:37:25.044Z,0
2023-05-11T00:38:41.323Z,0
2023-05-11T00:39:57.619Z,0
2023-05-11T00:41:13.911Z,0
2023-05-11T00:42:30.210Z,0
2023-05-11T00:43:46.513Z,0
2023-05-11T00:45:02.791Z,0
2023-05-11T00:46:19.103Z,0
2023-05-11T00:47:35.000Z,0
2023-05-11T00:48:51.694Z,0
2023-05-11T00:50:07.985Z,0
2023-05-11T00:51:24.263Z,0
2023-05-11T00:52:39.590Z,0
2023-05-11T00:53:55.880Z,0
2023-05-11T00:55:12.170Z,0
2023-05-11T00:56:28.464Z,0
2023-05-11T00:59:01.048Z,0
2023-05-11T01:00:17.343Z,0
2023-05-11T01:01:33.637Z,0
2023-05-11T01:02:49.930Z,0
2023-05-11T01:04:06.230Z,0
2023-05-11T01:05:22.532Z,0
2023-05-11T01:06:38.818Z,0
2023-05-11T01:07:55.118Z,0
2023-05-11T01:09:10.423Z,0
2023-05-11T01:10:26.724Z,0
2023-05-11T01:11:43.012Z,0
2023-05-11T01:12:59.307Z,0
2023-05-11T01:14:15.588Z,0
2023-05-11T01:15:31.899Z,0
2023-05-11T01:16:48.188Z,0
2023-05-11T01:18:04.477Z,0
2023-05-11T01:19:20.771Z,0
2023-05-11T01:20:37.075Z,0
2023-05-11T01:21:53.354Z,0
2023-05-11T01:23:09.655Z,0
2023-05-11T01:24:25.936Z,0
2023-05-11T01:25:41.266Z,0
2023-05-11T01:26:57.543Z,0
2023-05-11T01:28:13.834Z,0
2023-05-11T01:29:30.148Z,0
2023-05-11T01:30:46.426Z,0
2023-05-11T01:32:02.729Z,0
2023-05-11T01:33:19.020Z,0
2023-05-11T01:34:35.321Z,0
2023-05-11T01:37:07.912Z,0
2023-05-11T01:39:40.496Z,0
2023-05-11T01:40:56.786Z,0
2023-05-11T01:42:13.088Z,0
2023-05-11T01:43:28.387Z,0
2023-05-11T01:44:44.688Z,0
2023-05-11T01:46:00.972Z,0
2023-05-11T01:47:17.259Z,0
2023-05-11T01:48:33.553Z,0
2023-05-11T01:49:49.851Z,0
2023-05-11T01:52:22.448Z,0
2023-05-11T01:53:38.745Z,0
2023-05-11T01:54:55.027Z,0
2023-05-11T01:56:11.321Z,0
2023-05-11T01:57:27.618Z,0
2023-05-11T01:58:43.909Z,0
2023-05-11T01:59:59.230Z,0
2023-05-11T02:01:14.533Z,0
2023-05-11T02:02:30.836Z,0
2023-05-11T02:03:47.120Z,0
2023-05-11T02:05:03.428Z,0
2023-05-11T02:07:36.012Z,0
2023-05-11T02:08:52.310Z,0
2023-05-11T02:10:08.605Z,0
2023-05-11T02:12:41.184Z,0
2023-05-11T02:13:57.483Z,0
2023-05-11T02:15:12.802Z,0
2023-05-11T02:16:28.116Z,0
2023-05-11T02:17:44.399Z,0
2023-05-11T02:19:00.687Z,0
2023-05-11T02:20:16.993Z,0
2023-05-11T02:21:33.276Z,0
2023-05-11T02:22:49.570Z,0
2023-05-11T02:24:05.869Z,0
2023-05-11T02:25:22.154Z,0
2023-05-11T02:26:38.463Z,0
2023-05-11T02:27:54.748Z,0
2023-05-11T02:29:10.057Z,0
2023-05-11T02:30:25.380Z,0
2023-05-11T02:31:41.681Z,0
2023-05-11T02:32:57.960Z,0
2023-05-11T02:34:14.262Z,0
2023-05-11T02:35:30.509Z,1
2023-05-11T02:36:46.799Z,0
2023-05-11T02:38:03.093Z,0
2023-05-11T02:39:19.381Z,0
2023-05-11T02:40:35.684Z,0
2023-05-11T02:41:50.944Z,1
2023-05-11T02:43:07.183Z,1
2023-05-11T02:45:38.787Z,0
2023-05-11T02:46:54.117Z,0
2023-05-11T02:48:10.402Z,0
2023-05-11T02:49:26.692Z,0
2023-05-11T02:50:43.007Z,0
2023-05-11T02:51:59.251Z,3
2023-05-11T02:53:15.491Z,2
2023-05-11T02:54:31.736Z,1
2023-05-11T02:55:47.976Z,1
2023-05-11T02:57:04.209Z,1
2023-05-11T02:58:20.456Z,2
2023-05-11T02:59:36.708Z,2
2023-05-11T03:00:52.949Z,1
2023-05-11T03:02:09.169Z,4
2023-05-11T03:03:25.538Z,4
2023-05-11T03:04:41.789Z,4
2023-05-11T03:05:58.027Z,5
2023-05-11T03:07:14.270Z,6
2023-05-11T03:08:30.490Z,7
2023-05-11T03:09:46.732Z,9
2023-05-11T03:11:02.972Z,12
2023-05-11T03:12:19.225Z,14
2023-05-11T03:13:35.469Z,17
2023-05-11T03:16:07.935Z,23
2023-05-11T03:17:24.189Z,27
2023-05-11T03:18:40.416Z,30
2023-05-11T03:19:55.670Z,33
2023-05-11T03:21:11.910Z,36
2023-05-11T03:22:28.147Z,39
2023-05-11T03:23:44.393Z,42
2023-05-11T03:25:00.636Z,47
2023-05-11T03:26:16.875Z,51
2023-05-11T03:27:33.116Z,54
2023-05-11T03:28:49.357Z,59
2023-05-11T03:30:05.607Z,73
2023-05-11T03:31:21.831Z,88
2023-05-11T03:32:38.071Z,83
2023-05-11T03:33:54.308Z,93
2023-05-11T03:35:10.560Z,104
2023-05-11T03:36:25.806Z,97
2023-05-11T03:37:42.045Z,92
2023-05-11T03:38:58.284Z,93
2023-05-11T03:40:14.527Z,106
2023-05-11T03:41:30.766Z,133
2023-05-11T03:42:47.020Z,161
2023-05-11T03:44:03.252Z,165
2023-05-11T03:45:19.486Z,161
2023-05-11T03:46:35.741Z,175
2023-05-11T03:47:51.965Z,207
2023-05-11T03:49:08.220Z,237
2023-05-11T03:50:24.446Z,268
2023-05-11T03:51:40.689Z,294
2023-05-11T03:52:55.937Z,309
2023-05-11T03:54:12.180Z,340
2023-05-11T03:55:28.426Z,327
2023-05-11T03:56:44.675Z,317
2023-05-11T03:58:00.900Z,305
2023-05-11T03:59:17.141Z,296
2023-05-11T04:01:49.626Z,303
2023-05-11T04:03:05.871Z,346
2023-05-11T04:04:22.119Z,376
2023-05-11T04:05:38.345Z,376
2023-05-11T04:06:54.592Z,377
2023-05-11T04:08:10.824Z,406
2023-05-11T04:09:26.095Z,431
2023-05-11T04:10:42.321Z,424
2023-05-11T04:11:58.556Z,423
2023-05-11T04:13:14.799Z,496
2023-05-11T04:14:31.047Z,563
2023-05-11T04:17:03.521Z,608
2023-05-11T04:18:19.772Z,661
2023-05-11T04:19:36.012Z,708
2023-05-11T04:20:52.243Z,744
2023-05-11T04:22:08.477Z,695
2023-05-11T04:23:24.724Z,660
2023-05-11T04:24:40.973Z,641
2023-05-11T04:25:56.226Z,661
2023-05-11T04:27:12.459Z,700
2023-05-11T04:28:28.691Z,744
2023-05-11T04:29:44.932Z,800
2023-05-11T04:31:01.190Z,851
2023-05-11T04:32:17.423Z,897
2023-05-11T04:33:33.654Z,965
2023-05-11T04:34:49.911Z,1052
2023-05-11T04:36:06.132Z,1140
2023-05-11T04:37:22.389Z,1234
2023-05-11T04:38:38.619Z,1314
2023-05-11T04:39:54.868Z,1373
2023-05-11T04:41:11.101Z,1434
2023-05-11T04:42:27.464Z,1505
2023-05-11T04:43:43.707Z,1567
2023-05-11T04:44:59.948Z,1617
2023-05-11T04:46:16.184Z,1659
2023-05-11T04:47:32.413Z,1695
2023-05-11T04:48:48.669Z,1775
2023-05-11T04:50:04.910Z,1894
2023-05-11T04:51:21.142Z,1974
2023-05-11T04:52:37.373Z,2130
2023-05-11T04:53:53.612Z,2260
2023-05-11T04:55:09.854Z,2386
2023-05-11T04:56:26.110Z,2539
2023-05-11T04:57:42.335Z,2648
2023-05-11T04:58:57.601Z,2688
2023-05-11T05:00:13.844Z,2843
2023-05-11T05:01:30.086Z,2984
2023-05-11T05:02:46.317Z,3141
2023-05-11T05:04:02.548Z,3347
2023-05-11T05:05:18.796Z,3421
2023-05-11T05:06:35.032Z,3532
2023-05-11T05:07:51.273Z,3475
2023-05-11T05:09:07.526Z,3527
2023-05-11T05:10:23.759Z,3661
2023-05-11T05:12:56.239Z,3920
2023-05-11T05:14:12.473Z,3792
2023-05-11T05:15:27.742Z,3731
2023-05-11T05:18:00.214Z,3693
2023-05-11T05:19:16.458Z,3650
2023-05-11T05:20:32.690Z,3616
2023-05-11T05:21:48.930Z,3642
2023-05-11T05:23:05.175Z,3651
2023-05-11T05:24:21.424Z,3682
2023-05-11T05:25:37.649Z,3694
2023-05-11T05:26:53.888Z,3694
2023-05-11T05:28:10.134Z,3669
2023-05-11T05:29:26.365Z,3531
2023-05-11T05:30:42.622Z,3715
2023-05-11T05:31:57.877Z,3866
2023-05-11T05:33:14.102Z,4027
2023-05-11T05:34:30.350Z,4092
2023-05-11T05:35:46.593Z,4159
2023-05-11T05:37:02.831Z,4089
2023-05-11T05:38:19.066Z,4015
2023-05-11T05:39:35.309Z,3994
2023-05-11T05:40:51.554Z,3917
2023-05-11T05:42:07.781Z,3867
2023-05-11T05:43:24.036Z,3930
2023-05-11T05:44:40.271Z,3781
2023-05-11T05:45:56.504Z,3849
2023-05-11T05:48:28.999Z,4195
2023-05-11T05:49:44.242Z,4190
2023-05-11T05:51:00.478Z,4165
2023-05-11T05:52:16.726Z,4291
2023-05-11T05:53:32.970Z,4577
2023-05-11T05:54:49.204Z,4760
2023-05-11T05:56:05.440Z,4816
2023-05-11T05:57:21.685Z,4626
2023-05-11T05:58:37.928Z,4507
2023-05-11T05:59:54.170Z,4376
2023-05-11T06:01:10.404Z,4161
2023-05-11T06:02:26.650Z,4043
2023-05-11T06:03:42.887Z,3891
2023-05-11T06:04:59.120Z,3722
2023-05-11T06:06:14.387Z,3674
2023-05-11T06:07:30.609Z,3852
2023-05-11T06:08:46.850Z,4003
2023-05-11T06:10:03.100Z,4301
2023-05-11T06:11:19.332Z,4505
2023-05-11T06:12:35.577Z,4314
2023-05-11T06:13:51.808Z,4157
2023-05-11T06:15:08.061Z,3891
2023-05-11T06:16:24.292Z,4159
2023-05-11T06:18:56.771Z,4256
2023-05-11T06:21:29.255Z,4338
2023-05-11T06:22:44.518Z,4326
2023-05-11T06:24:00.763Z,4311
2023-05-11T06:25:16.993Z,4308
2023-05-11T06:26:33.242Z,4185
2023-05-11T06:29:05.717Z,4358
2023-05-11T06:30:20.978Z,4577
2023-05-11T06:31:36.234Z,4444
2023-05-11T06:32:52.464Z,4549
2023-05-11T06:34:08.720Z,4629
2023-05-11T06:35:24.949Z,4910
2023-05-11T06:36:41.188Z,5103
2023-05-11T06:37:57.433Z,5300
2023-05-11T06:39:13.661Z,5346
2023-05-11T06:40:29.912Z,5275
2023-05-11T06:41:46.149Z,5185
2023-05-11T06:43:01.000Z,5193
2023-05-11T06:44:16.660Z,5213
2023-05-11T06:45:32.913Z,5133
2023-05-11T06:46:49.151Z,5025
2023-05-11T06:49:21.616Z,5274
2023-05-11T06:50:37.855Z,5208
2023-05-11T06:51:54.108Z,5160
2023-05-11T06:53:10.349Z,5206
2023-05-11T06:54:26.575Z,5160
2023-05-11T06:55:42.824Z,5152
2023-05-11T06:56:59.058Z,5086
2023-05-11T06:58:15.313Z,5088
2023-05-11T06:59:31.548Z,5119
2023-05-11T07:00:46.807Z,4941
2023-05-11T07:02:02.064Z,4972
2023-05-11T07:04:34.541Z,4880
2023-05-11T07:05:49.810Z,4920
2023-05-11T07:07:05.054Z,4909
2023-05-11T07:08:21.297Z,4817
2023-05-11T07:09:37.533Z,4746
2023-05-11T07:10:53.783Z,4804
2023-05-11T07:12:10.017Z,4798
2023-05-11T07:13:26.267Z,4772
2023-05-11T07:14:42.488Z,4773
2023-05-11T07:15:58.727Z,4794
2023-05-11T07:17:14.978Z,4766
2023-05-11T07:18:30.248Z,4737
2023-05-11T07:19:45.486Z,4655
2023-05-11T07:21:01.743Z,4669
2023-05-11T07:22:17.968Z,4776
2023-05-11T07:24:50.455Z,4949
2023-05-11T07:26:06.702Z,5042
2023-05-11T07:27:22.938Z,4993
2023-05-11T07:28:39.173Z,4996
2023-05-11T07:29:55.421Z,5056
2023-05-11T07:31:11.653Z,5078
2023-05-11T07:32:27.884Z,5069
2023-05-11T07:33:44.132Z,5210
2023-05-11T07:35:00.361Z,5344
2023-05-11T07:36:15.625Z,5237
2023-05-11T07:37:31.861Z,5074
2023-05-11T07:38:48.108Z,5209
2023-05-11T07:40:04.349Z,5175
2023-05-11T07:42:36.831Z,5817
2023-05-11T07:43:52.087Z,5198
2023-05-11T07:45:07.353Z,5213
2023-05-11T07:46:23.579Z,4816
2023-05-11T07:47:39.824Z,6869
2023-05-11T07:48:56.074Z,6768
2023-05-11T07:50:12.298Z,4046
2023-05-11T07:51:28.541Z,6282
2023-05-11T07:52:44.791Z,5733
2023-05-11T07:54:01.027Z,6405
2023-05-11T07:55:17.263Z,8922
2023-05-11T07:57:48.755Z,6118
2023-05-11T07:59:04.019Z,6048
2023-05-11T08:00:20.266Z,6031
2023-05-11T08:01:36.492Z,5597
2023-05-11T08:02:52.748Z,5956
2023-05-11T08:04:08.971Z,5554
2023-05-11T08:05:25.217Z,6013
2023-05-11T08:06:41.449Z,5664
2023-05-11T08:07:57.688Z,5894
2023-05-11T08:09:13.946Z,5443
2023-05-11T08:10:29.197Z,5935
2023-05-11T08:11:44.447Z,5558
2023-05-11T08:13:00.690Z,4723
2023-05-11T08:14:16.946Z,6585
2023-05-11T08:15:33.177Z,8575
2023-05-11T08:16:49.416Z,8144
2023-05-11T08:18:05.658Z,8672
2023-05-11T08:19:21.901Z,8339
2023-05-11T08:20:38.144Z,7701
2023-05-11T08:21:54.380Z,8281
2023-05-11T08:23:10.613Z,8166
2023-05-11T08:24:26.862Z,7642
2023-05-11T08:25:43.096Z,9318
2023-05-11T08:26:59.326Z,8389
2023-05-11T08:28:14.596Z,8483
2023-05-11T08:29:30.837Z,8181
2023-05-11T08:30:47.071Z,8984
2023-05-11T08:32:03.298Z,8080
2023-05-11T08:33:19.555Z,7999
2023-05-11T08:34:35.785Z,7241
2023-05-11T08:35:52.026Z,9036
2023-05-11T08:37:08.279Z,8724
2023-05-11T08:38:24.510Z,7916
2023-05-11T08:39:40.747Z,7799
2023-05-11T08:40:56.980Z,6260
2023-05-11T08:42:13.230Z,5679
2023-05-11T08:43:29.468Z,7534
2023-05-11T08:44:44.715Z,6254
2023-05-11T08:46:00.968Z,6746
2023-05-11T08:47:17.205Z,7532
2023-05-11T08:48:33.451Z,7100
2023-05-11T08:51:05.920Z,5270
2023-05-11T08:52:22.173Z,9660
2023-05-11T08:53:38.410Z,8161
2023-05-11T08:54:54.652Z,7065
2023-05-11T08:56:10.879Z,8845
2023-05-11T08:57:27.134Z,7697
2023-05-11T08:58:43.358Z,7563
2023-05-11T08:59:59.614Z,8564
2023-05-11T09:01:14.852Z,6973
2023-05-11T09:02:31.093Z,7012
2023-05-11T09:03:47.340Z,7661
2023-05-11T09:05:03.581Z,7610
2023-05-11T09:06:19.824Z,7170
2023-05-11T09:07:36.061Z,7430
2023-05-11T09:08:52.304Z,8311
2023-05-11T09:10:08.544Z,8446
2023-05-11T09:11:24.784Z,8892
2023-05-11T09:13:57.265Z,10133
2023-05-11T09:15:13.509Z,8214
2023-05-11T09:16:29.729Z,8944
2023-05-11T09:17:45.003Z,9026
2023-05-11T09:19:01.224Z,7526
2023-05-11T09:20:17.465Z,7415
2023-05-11T09:21:33.719Z,6572
2023-05-11T09:22:49.956Z,7024
2023-05-11T09:24:06.191Z,8479
2023-05-11T09:25:22.445Z,8072
2023-05-11T09:26:38.667Z,8167
2023-05-11T09:27:54.917Z,5801
2023-05-11T09:29:11.146Z,7518
2023-05-11T09:30:27.397Z,6720
2023-05-11T09:31:43.632Z,8822
2023-05-11T09:32:59.865Z,5917
2023-05-11T09:34:15.122Z,6229
2023-05-11T09:35:31.374Z,7903
2023-05-11T09:36:47.619Z,7252
2023-05-11T09:38:03.851Z,7452
2023-05-11T09:39:20.095Z,6953
2023-05-11T09:40:36.338Z,5607
2023-05-11T09:41:52.564Z,6455
2023-05-11T09:43:08.811Z,6394
2023-05-11T09:44:25.060Z,9271
2023-05-11T09:45:41.285Z,7177
2023-05-11T09:46:57.541Z,9076
2023-05-11T09:48:13.766Z,7819
2023-05-11T09:49:30.009Z,8943
2023-05-11T09:50:45.265Z,8414
2023-05-11T09:52:01.499Z,7506
2023-05-11T09:53:17.740Z,6393
2023-05-11T09:54:33.995Z,6846
2023-05-11T09:55:50.220Z,7501
2023-05-11T09:57:06.464Z,7336
2023-05-11T09:58:22.709Z,5562
2023-05-11T09:59:38.958Z,7433
2023-05-11T10:00:55.188Z,8511
2023-05-11T10:02:11.424Z,7389
2023-05-11T10:03:27.664Z,6109
2023-05-11T10:04:43.908Z,6693
2023-05-11T10:07:16.396Z,6978
2023-05-11T10:08:31.640Z,6517
2023-05-11T10:09:47.881Z,6869
2023-05-11T10:11:04.121Z,5813
2023-05-11T10:12:20.367Z,6273
2023-05-11T10:13:36.605Z,8207
2023-05-11T10:14:52.850Z,8818
2023-05-11T10:16:09.074Z,7625
2023-05-11T10:17:25.329Z,7529
2023-05-11T10:18:41.568Z,8536
2023-05-11T10:19:57.813Z,8413
2023-05-11T10:21:14.044Z,7929
2023-05-11T10:22:30.288Z,8660
2023-05-11T10:23:46.512Z,9231
2023-05-11T10:25:01.774Z,9768
2023-05-11T10:26:18.008Z,7703
2023-05-11T10:27:34.259Z,7770
2023-05-11T10:28:50.506Z,6116
2023-05-11T10:30:06.728Z,6543
2023-05-11T10:31:22.983Z,5588
2023-05-11T10:32:39.221Z,6089
2023-05-11T10:33:55.457Z,5444
2023-05-11T10:35:11.708Z,7719
2023-05-11T10:36:27.927Z,9358
2023-05-11T10:37:44.184Z,8804
2023-05-11T10:39:00.411Z,7764
2023-05-11T10:40:16.668Z,6809
2023-05-11T10:41:31.908Z,6441
2023-05-11T10:42:48.159Z,6770
2023-05-11T10:44:04.397Z,6825
2023-05-11T10:45:20.624Z,6932
2023-05-11T10:46:36.879Z,7097
2023-05-11T10:47:53.106Z,6201
2023-05-11T10:49:09.357Z,7288
2023-05-11T10:50:25.599Z,9338
2023-05-11T10:51:41.839Z,7838
2023-05-11T10:52:58.075Z,6417
2023-05-11T10:54:14.314Z,6846
2023-05-11T10:55:30.557Z,6295
2023-05-11T10:56:46.800Z,8826
2023-05-11T10:58:02.059Z,8254
2023-05-11T10:59:18.281Z,8643
2023-05-11T11:00:34.529Z,8719
2023-05-11T11:01:50.779Z,7826
2023-05-11T11:03:07.004Z,8351
2023-05-11T11:04:23.252Z,8073
2023-05-11T11:05:39.478Z,6707
2023-05-11T11:06:55.730Z,8342
2023-05-11T11:08:11.958Z,7017
2023-05-11T11:09:28.200Z,6383
2023-05-11T11:10:44.455Z,7502
2023-05-11T11:13:16.928Z,7075
2023-05-11T11:14:32.185Z,6897
2023-05-11T11:15:48.427Z,7619
2023-05-11T11:17:03.695Z,7653
2023-05-11T11:18:19.933Z,6823
2023-05-11T11:19:36.157Z,5954
2023-05-11T11:20:52.413Z,5193
2023-05-11T11:22:08.641Z,5190
2023-05-11T11:24:41.132Z,6003
2023-05-11T11:25:57.362Z,5058
2023-05-11T11:27:13.612Z,4983
2023-05-11T11:28:29.852Z,4752
2023-05-11T11:29:46.077Z,4658
2023-05-11T11:31:02.329Z,5116
2023-05-11T11:32:18.567Z,5945
2023-05-11T11:33:33.811Z,7834
2023-05-11T11:34:50.054Z,7779
2023-05-11T11:36:06.294Z,8608
2023-05-11T11:38:38.771Z,7521
2023-05-11T11:39:54.050Z,7261
2023-05-11T11:41:09.288Z,6828
2023-05-11T11:42:25.534Z,8647
2023-05-11T11:43:41.788Z,8869
2023-05-11T11:44:58.023Z,8365
2023-05-11T11:46:14.265Z,8658
2023-05-11T11:47:30.488Z,8687
2023-05-11T11:48:46.749Z,7850
2023-05-11T11:50:02.983Z,6581
2023-05-11T11:51:19.208Z,5599
2023-05-11T11:52:34.491Z,5338
2023-05-11T11:53:49.739Z,5626
2023-05-11T11:55:05.977Z,6452
2023-05-11T11:56:22.219Z,6527
2023-05-11T11:57:38.463Z,6639
2023-05-11T11:58:54.684Z,5855
2023-05-11T12:00:10.943Z,5708
2023-05-11T12:01:27.183Z,5453
2023-05-11T12:02:43.411Z,5806
2023-05-11T12:03:59.663Z,6443
2023-05-11T12:05:15.893Z,7783
2023-05-11T12:06:32.124Z,7574
2023-05-11T12:07:48.371Z,7442
2023-05-11T12:09:04.616Z,6481
2023-05-11T12:10:19.875Z,5949
2023-05-11T12:11:36.120Z,5846
2023-05-11T12:12:52.351Z,5951
2023-05-11T12:14:08.591Z,5679
2023-05-11T12:15:24.836Z,5871
2023-05-11T12:16:41.073Z,5904
2023-05-11T12:19:13.558Z,6756
2023-05-11T12:20:29.789Z,7108
2023-05-11T12:21:46.040Z,6879
2023-05-11T12:24:18.520Z,6333
2023-05-11T12:25:34.742Z,6023
2023-05-11T12:26:49.999Z,5889
2023-05-11T12:28:06.243Z,6008
2023-05-11T12:29:22.492Z,6263
2023-05-11T12:30:38.727Z,6718
2023-05-11T12:31:54.966Z,7565
2023-05-11T12:33:11.214Z,7218
2023-05-11T12:34:27.447Z,7254
2023-05-11T12:35:43.689Z,7717
2023-05-11T12:36:59.916Z,8014
2023-05-11T12:38:16.170Z,8124
2023-05-11T12:39:32.412Z,8253
2023-05-11T12:40:48.638Z,9060
2023-05-11T12:42:04.884Z,8752
2023-05-11T12:43:20.152Z,8994
2023-05-11T12:44:36.377Z,8844
2023-05-11T12:47:08.853Z,8244
2023-05-11T12:48:25.107Z,7331
2023-05-11T12:49:41.347Z,7098
2023-05-11T12:50:57.583Z,7496
2023-05-11T12:52:13.831Z,7285
2023-05-11T12:53:30.061Z,6942
2023-05-11T12:54:46.304Z,6986
2023-05-11T12:56:02.541Z,6974
2023-05-11T12:57:18.772Z,6629
2023-05-11T12:58:35.019Z,6286
2023-05-11T12:59:51.268Z,5987
2023-05-11T13:01:06.523Z,6077
2023-05-11T13:02:22.753Z,6854
2023-05-11T13:03:38.995Z,7363
2023-05-11T13:04:55.228Z,7447
2023-05-11T13:06:11.480Z,7147
2023-05-11T13:07:27.709Z,6910
2023-05-11T13:10:00.205Z,7092
2023-05-11T13:11:15.468Z,7271
2023-05-11T13:12:30.724Z,7033
2023-05-11T13:13:46.954Z,6801
2023-05-11T13:15:03.194Z,6459
2023-05-11T13:16:19.443Z,6514
2023-05-11T13:17:35.673Z,6714
2023-05-11T13:18:51.925Z,6954
2023-05-11T13:20:08.164Z,7188
2023-05-11T13:21:24.403Z,7214
2023-05-11T13:22:40.632Z,7416
2023-05-11T13:23:56.871Z,7774
2023-05-11T13:25:13.113Z,7889
2023-05-11T13:26:29.360Z,7936
2023-05-11T13:27:45.591Z,8138
2023-05-11T13:29:00.861Z,7964
2023-05-11T13:30:17.090Z,7830
2023-05-11T13:32:49.575Z,7101
2023-05-11T13:34:05.810Z,7048
2023-05-11T13:35:22.055Z,7032
2023-05-11T13:36:38.293Z,6935
2023-05-11T13:37:54.541Z,6874
2023-05-11T13:39:10.770Z,6973
2023-05-11T13:40:27.018Z,7169
2023-05-11T13:41:43.259Z,7411
2023-05-11T13:42:59.494Z,7886
2023-05-11T13:44:15.730Z,8202
2023-05-11T13:45:30.990Z,8387
2023-05-11T13:46:47.221Z,8266
2023-05-11T13:48:03.468Z,8418
2023-05-11T13:49:19.712Z,8580
2023-05-11T13:50:35.957Z,8723
2023-05-11T13:51:52.185Z,8627
2023-05-11T13:53:08.421Z,8506
2023-05-11T13:54:24.660Z,8420
2023-05-11T13:55:40.901Z,8578
2023-05-11T13:56:57.155Z,8717
2023-05-11T13:58:13.395Z,8412
2023-05-11T13:59:29.639Z,8790
2023-05-11T14:00:45.876Z,8779
2023-05-11T14:02:01.119Z,8403
2023-05-11T14:03:17.360Z,8136
2023-05-11T14:04:33.599Z,7816
2023-05-11T14:05:49.837Z,7857
2023-05-11T14:07:06.079Z,7876
2023-05-11T14:08:22.335Z,7519
2023-05-11T14:10:54.817Z,7074
2023-05-11T14:12:11.038Z,7015
2023-05-11T14:13:27.280Z,7005
2023-05-11T14:14:43.532Z,7129
2023-05-11T14:15:59.768Z,7234
2023-05-11T14:18:32.242Z,7450
2023-05-11T14:19:47.513Z,7443
2023-05-11T14:21:03.737Z,7518
2023-05-11T14:22:19.984Z,7639
2023-05-11T14:23:36.223Z,7799
2023-05-11T14:26:08.710Z,8046
2023-05-11T14:27:23.966Z,8048
2023-05-11T14:28:39.218Z,7990
2023-05-11T14:29:55.469Z,7872
2023-05-11T14:31:11.705Z,7828
2023-05-11T14:33:44.188Z,7856
2023-05-11T14:35:00.413Z,7923
2023-05-11T14:36:16.662Z,7823
2023-05-11T14:37:32.897Z,7584
2023-05-11T14:38:49.143Z,7527
2023-05-11T14:40:05.384Z,7537
2023-05-11T14:41:21.621Z,7507
2023-05-11T14:42:37.855Z,7522
2023-05-11T14:43:54.100Z,7660
2023-05-11T14:45:09.362Z,7785
2023-05-11T14:46:25.597Z,7812
2023-05-11T14:47:41.836Z,7795
2023-05-11T14:48:58.083Z,7747
2023-05-11T14:50:14.329Z,7800
2023-05-11T14:51:30.555Z,8040
2023-05-11T14:52:46.795Z,8238
2023-05-11T14:54:02.061Z,8489
2023-05-11T14:55:17.319Z,8272
2023-05-11T14:56:33.552Z,8113
2023-05-11T14:57:49.792Z,7812
2023-05-11T14:59:06.037Z,7649
2023-05-11T15:00:22.270Z,7503
2023-05-11T15:01:38.514Z,7468
2023-05-11T15:02:54.759Z,7585
2023-05-11T15:04:11.005Z,8009
2023-05-11T15:05:27.230Z,7965
2023-05-11T15:06:43.487Z,7265
2023-05-11T15:07:59.710Z,6937
2023-05-11T15:09:15.961Z,6570
2023-05-11T15:11:48.390Z,6029
2023-05-11T15:13:03.704Z,6276
2023-05-11T15:14:19.939Z,6182
2023-05-11T15:15:36.183Z,6081
2023-05-11T15:16:52.000Z,5932
2023-05-11T15:18:08.657Z,5790
2023-05-11T15:19:24.892Z,5607
2023-05-11T15:20:41.135Z,5444
2023-05-11T15:21:57.518Z,5301
2023-05-11T15:23:12.765Z,5225
2023-05-11T15:24:29.014Z,5203
2023-05-11T15:27:01.499Z,5195
2023-05-11T15:28:17.741Z,5322
2023-05-11T15:29:33.974Z,5317
2023-05-11T15:30:50.213Z,5419
2023-05-11T15:32:05.468Z,5502
2023-05-11T15:33:21.720Z,5494
2023-05-11T15:34:37.949Z,5252
2023-05-11T15:35:54.193Z,5077
2023-05-11T15:37:10.425Z,4927
2023-05-11T15:38:26.679Z,4770
2023-05-11T15:39:42.909Z,4685
2023-05-11T15:42:15.396Z,4691
2023-05-11T15:43:30.648Z,4881
2023-05-11T15:44:45.919Z,5093
2023-05-11T15:46:02.146Z,5200
2023-05-11T15:47:18.393Z,5271
2023-05-11T15:48:34.634Z,5245
2023-05-11T15:49:50.865Z,5187
2023-05-11T15:52:23.355Z,5075
2023-05-11T15:53:39.598Z,5232
2023-05-11T15:54:55.822Z,5210
2023-05-11T15:56:12.078Z,1926
2023-05-11T15:57:28.300Z,2818
2023-05-11T15:58:44.560Z,11578
2023-05-11T16:00:00.796Z,13212
2023-05-11T16:01:16.035Z,14326
2023-05-11T16:02:32.294Z,10896
2023-05-11T16:05:04.770Z,11482
2023-05-11T16:06:20.031Z,10410
2023-05-11T16:07:35.285Z,11321
2023-05-11T16:08:51.518Z,11205
2023-05-11T16:10:07.753Z,10471
2023-05-11T16:12:40.255Z,9368
2023-05-11T16:13:56.491Z,9777
2023-05-11T16:15:12.716Z,9942
2023-05-11T16:16:28.967Z,9768
2023-05-11T16:17:45.209Z,8917
2023-05-11T16:19:01.447Z,8592
2023-05-11T16:20:17.692Z,9753
2023-05-11T16:21:33.934Z,7411
2023-05-11T16:22:50.160Z,8349
2023-05-11T16:24:05.411Z,8595
2023-05-11T16:25:21.656Z,6876
2023-05-11T16:26:37.903Z,7878
2023-05-11T16:27:54.150Z,8358
2023-05-11T16:29:10.388Z,8508
2023-05-11T16:30:26.623Z,8146
2023-05-11T16:31:42.865Z,8030
2023-05-11T16:32:58.122Z,8693
2023-05-11T16:34:13.379Z,10191
2023-05-11T16:35:29.629Z,7919
2023-05-11T16:36:45.850Z,9868
2023-05-11T16:38:02.107Z,6844
2023-05-11T16:39:18.330Z,5226
2023-05-11T16:40:34.582Z,5737
2023-05-11T16:41:50.830Z,5962
2023-05-11T16:43:07.050Z,5156
2023-05-11T16:44:23.294Z,4902
2023-05-11T16:45:38.553Z,4592
2023-05-11T16:46:53.810Z,4242
2023-05-11T16:48:10.059Z,3992
2023-05-11T16:49:26.293Z,3763
2023-05-11T16:50:42.536Z,3624
2023-05-11T16:51:58.770Z,3719
2023-05-11T16:53:15.028Z,3813
2023-05-11T16:54:31.262Z,3759
2023-05-11T16:55:47.492Z,3729
2023-05-11T16:57:03.749Z,3752
2023-05-11T16:58:19.980Z,3716
2023-05-11T16:59:36.219Z,3596
2023-05-11T17:00:52.459Z,3527
2023-05-11T17:02:08.697Z,3430
2023-05-11T17:03:25.058Z,3363
2023-05-11T17:05:57.534Z,3503
2023-05-11T17:07:13.779Z,3535
2023-05-11T17:08:30.025Z,3492
2023-05-11T17:09:46.266Z,3453
2023-05-11T17:11:02.493Z,3447
2023-05-11T17:12:18.735Z,3446
2023-05-11T17:13:34.991Z,3414
2023-05-11T17:14:51.225Z,3400
2023-05-11T17:16:07.462Z,3379
2023-05-11T17:17:23.694Z,3350
2023-05-11T17:18:39.944Z,3272
2023-05-11T17:21:11.428Z,3022
2023-05-11T17:23:43.915Z,3080
2023-05-11T17:24:59.186Z,3004
2023-05-11T17:26:14.442Z,2614
2023-05-11T17:28:46.902Z,2825
2023-05-11T17:30:03.142Z,2539
2023-05-11T17:31:19.384Z,2494
2023-05-11T17:32:35.631Z,2445
2023-05-11T17:33:51.865Z,2327
2023-05-11T17:36:24.351Z,2214
2023-05-11T17:37:40.586Z,2261
2023-05-11T17:38:56.832Z,2286
2023-05-11T17:40:12.089Z,2210
2023-05-11T17:41:27.349Z,2094
2023-05-11T17:42:43.578Z,2065
2023-05-11T17:43:59.829Z,2134
2023-05-11T17:45:16.068Z,2123
2023-05-11T17:46:32.303Z,2057
2023-05-11T17:47:48.542Z,2013
2023-05-11T17:49:04.789Z,1959
2023-05-11T17:50:21.038Z,1928
2023-05-11T17:51:37.272Z,1849
2023-05-11T17:52:53.652Z,1804
2023-05-11T17:54:08.916Z,1747
2023-05-11T17:55:25.155Z,1637
2023-05-11T17:56:41.384Z,1554
2023-05-11T17:57:57.622Z,1463
2023-05-11T17:59:13.868Z,1376
2023-05-11T18:00:30.112Z,1274
2023-05-11T18:01:46.349Z,1196
2023-05-11T18:03:02.576Z,1106
2023-05-11T18:04:18.825Z,1064
2023-05-11T18:05:34.082Z,1024
2023-05-11T18:06:50.325Z,971
2023-05-11T18:08:05.573Z,930
2023-05-11T18:09:21.831Z,894
2023-05-11T18:10:38.054Z,893
2023-05-11T18:11:54.310Z,873
2023-05-11T18:13:10.532Z,816
2023-05-11T18:14:26.774Z,768
2023-05-11T18:15:43.027Z,747